Time;durP1;ratioP1;P1;durP2;ratioP2;P2;SDS_P1;SDS_P2;PMS_P1;PMS_P2;Temp;Humidity;BMP_temperature;BMP_pressure;BME280_temperature;BME280_humidity;BME280_pressure;Samples;Min_cycle;Max_cycle;Signal;HPM_P1;HPM_P2
2022/10/04 00:00:40;;;;;;;4.95;3.00;;;11.50;99.90;;;;;;4995828;28;20217;-84
2022/10/04 00:03:22;;;;;;;7.72;3.35;;;11.50;99.90;;;;;;4996505;28;20244;-84
2022/10/04 00:05:53;;;;;;;13.75;2.72;;;11.50;99.90;;;;;;4995004;28;20329;-85
2022/10/04 00:08:29;;;;;;;5.30;2.75;;;11.60;99.90;;;;;;5002125;28;20213;-84
2022/10/04 00:11:06;;;;;;;7.72;3.33;;;11.60;99.90;;;;;;4996517;28;20221;-84
2022/10/04 00:13:37;;;;;;;5.38;3.00;;;11.60;99.90;;;;;;5003115;28;20267;-82
2022/10/04 00:16:05;;;;;;;5.70;3.28;;;11.60;99.90;;;;;;4993961;28;20253;-82
2022/10/04 00:18:45;;;;;;;5.90;2.58;;;11.60;99.90;;;;;;4994664;28;20240;-85
2022/10/04 00:21:11;;;;;;;4.97;2.42;;;11.60;99.90;;;;;;4997082;28;20706;-81
2022/10/04 00:23:40;;;;;;;7.60;2.38;;;11.60;99.90;;;;;;5000268;28;20583;-84
2022/10/04 00:26:22;;;;;;;3.85;1.80;;;11.60;99.90;;;;;;4998997;28;20214;-83
2022/10/04 00:28:51;;;;;;;5.00;2.25;;;11.60;99.90;;;;;;4992031;28;20268;-84
2022/10/04 00:31:23;;;;;;;6.40;2.33;;;11.70;99.90;;;;;;4992011;28;20233;-83
2022/10/04 00:34:02;;;;;;;3.58;2.75;;;11.70;99.90;;;;;;4989577;28;20214;-83
2022/10/04 00:36:36;;;;;;;5.80;1.98;;;11.70;99.90;;;;;;4994949;28;20219;-82
2022/10/04 00:39:14;;;;;;;2.88;2.42;;;11.70;99.90;;;;;;4991108;28;20238;-82
2022/10/04 00:41:48;;;;;;;7.43;3.28;;;11.60;99.90;;;;;;4996609;28;20264;-82
2022/10/04 00:44:28;;;;;;;4.00;2.25;;;11.60;99.90;;;;;;4999239;28;20214;-83
2022/10/04 00:46:57;;;;;;;5.22;2.17;;;11.60;99.90;;;;;;4993492;28;20240;-84
2022/10/04 00:49:38;;;;;;;9.73;2.78;;;11.70;99.90;;;;;;5002329;28;20209;-82
2022/10/04 00:52:19;;;;;;;7.28;2.60;;;11.50;99.90;;;;;;5004121;28;20540;-84
2022/10/04 00:54:52;;;;;;;7.63;2.58;;;11.50;99.90;;;;;;5002746;28;20217;-84
2022/10/04 00:57:25;;;;;;;9.52;2.78;;;11.50;99.90;;;;;;5001817;28;20210;-82
2022/10/04 01:00:04;;;;;;;5.72;2.05;;;11.50;99.90;;;;;;4992389;28;20206;-85
2022/10/04 01:02:43;;;;;;;9.60;2.28;;;11.40;99.90;;;;;;4991435;28;20241;-86
2022/10/04 01:05:20;;;;;;;3.75;2.15;;;11.30;99.90;;;;;;4996161;28;20255;-83
2022/10/04 01:07:51;;;;;;;7.22;2.55;;;11.10;99.90;;;;;;4997910;28;20220;-82
2022/10/04 01:10:38;;;;;;;4.53;2.20;;;11.00;99.90;;;;;;4995991;28;20233;-84
2022/10/04 01:13:13;;;;;;;5.53;3.22;;;10.90;99.90;;;;;;4988000;28;20209;-83
2022/10/04 01:15:43;;;;;;;7.60;3.38;;;10.80;99.90;;;;;;4999127;28;20204;-84
2022/10/04 01:18:18;;;;;;;6.38;2.90;;;10.80;99.90;;;;;;4997917;28;20276;-84
2022/10/04 01:21:07;;;;;;;11.88;5.07;;;10.80;99.90;;;;;;4998703;28;20213;-82
2022/10/04 01:24:00;;;;;;;11.30;3.50;;;10.80;99.90;;;;;;4990707;28;20209;-84
2022/10/04 01:26:33;;;;;;;4.00;3.22;;;10.80;99.90;;;;;;4995510;28;20213;-84
2022/10/04 01:29:07;;;;;;;8.32;2.58;;;10.80;99.90;;;;;;4997634;28;20206;-83
2022/10/04 01:31:37;;;;;;;8.48;3.00;;;10.80;99.90;;;;;;4995709;28;20296;-84
2022/10/04 01:34:07;;;;;;;9.38;3.28;;;10.90;99.90;;;;;;4992691;28;20214;-84
2022/10/04 01:36:35;;;;;;;7.10;3.90;;;11.00;99.90;;;;;;4999947;28;20209;-84
2022/10/04 01:39:05;;;;;;;5.55;2.78;;;11.10;99.90;;;;;;4994185;28;20205;-84
2022/10/04 01:41:52;;;;;;;5.82;3.35;;;11.10;99.90;;;;;;5001436;28;20213;-81
2022/10/04 01:44:28;;;;;;;5.97;2.28;;;11.10;99.90;;;;;;4998621;28;20206;-83
2022/10/04 01:47:00;;;;;;;6.32;2.63;;;11.10;99.90;;;;;;5000453;28;20212;-84
2022/10/04 01:49:31;;;;;;;11.77;3.50;;;11.20;99.90;;;;;;4995922;28;20202;-86
2022/10/04 01:52:06;;;;;;;5.38;3.13;;;11.30;99.90;;;;;;4999436;28;20221;-83
2022/10/04 01:54:37;;;;;;;3.83;2.88;;;11.30;99.90;;;;;;4990937;28;20567;-86
2022/10/04 01:57:25;;;;;;;10.20;3.08;;;11.30;99.90;;;;;;4995428;28;20393;-85
2022/10/04 02:00:01;;;;;;;8.38;3.10;;;11.30;99.90;;;;;;4987514;28;20253;-84
2022/10/04 02:02:48;;;;;;;6.68;3.92;;;11.30;99.90;;;;;;4987830;28;20284;-85
2022/10/04 02:05:19;;;;;;;3.72;3.30;;;11.30;99.90;;;;;;4980480;28;20282;-87
2022/10/04 02:07:48;;;;;;;6.28;2.83;;;11.20;99.90;;;;;;4997860;28;20264;-83
2022/10/04 02:10:19;;;;;;;7.78;3.15;;;11.10;99.90;;;;;;4977952;28;20214;-84
2022/10/04 02:12:49;;;;;;;8.48;4.30;;;11.10;99.90;;;;;;4990590;28;20855;-83
2022/10/04 02:15:19;;;;;;;6.28;2.67;;;11.10;99.90;;;;;;4998097;28;20279;-85
2022/10/04 02:17:48;;;;;;;6.07;2.72;;;11.10;99.90;;;;;;4995600;28;20213;-84
2022/10/04 02:20:20;;;;;;;6.88;4.30;;;11.20;99.90;;;;;;4983208;28;20256;-83
2022/10/04 02:22:51;;;;;;;9.82;3.58;;;11.20;99.90;;;;;;4995655;28;20261;-85
2022/10/04 02:25:21;;;;;;;7.07;3.83;;;11.20;99.90;;;;;;4996744;28;20256;-87
2022/10/04 02:27:52;;;;;;;5.72;3.47;;;11.20;99.90;;;;;;4991403;28;20448;-86
2022/10/04 02:30:22;;;;;;;8.20;3.65;;;11.10;99.90;;;;;;4997939;28;20195;-82
2022/10/04 02:32:59;;;;;;;4.20;3.25;;;10.90;99.90;;;;;;4996357;28;20210;-84
2022/10/04 02:35:34;;;;;;;8.07;4.40;;;11.00;99.90;;;;;;5011930;28;20207;-83
2022/10/04 02:38:17;;;;;;;7.22;3.58;;;10.80;99.90;;;;;;4992408;28;20205;-84
2022/10/04 02:40:55;;;;;;;9.10;4.05;;;10.80;99.90;;;;;;5002283;28;20245;-84
2022/10/04 02:43:36;;;;;;;8.77;3.70;;;10.70;99.90;;;;;;4999804;28;20219;-83
2022/10/04 02:46:13;;;;;;;5.70;4.28;;;10.70;99.90;;;;;;5000959;28;20239;-84
2022/10/04 02:48:48;;;;;;;6.97;3.83;;;10.70;99.90;;;;;;4998653;28;20223;-80
2022/10/04 02:51:24;;;;;;;15.32;3.92;;;10.80;99.90;;;;;;4997358;28;20586;-83
2022/10/04 02:54:06;;;;;;;9.25;4.03;;;10.70;99.90;;;;;;4998833;28;20213;-82
2022/10/04 02:56:36;;;;;;;8.82;5.22;;;10.70;99.90;;;;;;5000666;28;20212;-83
2022/10/04 02:59:04;;;;;;;8.25;4.80;;;10.60;99.90;;;;;;4995710;28;20228;-84
2022/10/04 03:01:52;;;;;;;8.57;4.75;;;10.60;99.90;;;;;;4995744;28;20400;-85
2022/10/04 03:04:26;;;;;;;6.05;4.00;;;10.60;99.90;;;;;;4998885;28;20217;-83
2022/10/04 03:06:56;;;;;;;8.60;5.68;;;10.60;99.90;;;;;;4997110;28;20211;-84
2022/10/04 03:09:24;;;;;;;15.13;5.60;;;10.60;99.90;;;;;;4990253;28;20214;-81
2022/10/04 03:11:55;;;;;;;10.00;4.22;;;10.70;99.90;;;;;;4988763;28;20723;-82
2022/10/04 03:14:25;;;;;;;8.00;4.13;;;10.70;99.90;;;;;;4997737;28;20224;-83
2022/10/04 03:16:56;;;;;;;11.77;6.35;;;10.60;99.90;;;;;;4987424;28;20299;-82
2022/10/04 03:19:26;;;;;;;12.85;6.05;;;10.60;99.90;;;;;;4997614;28;20208;-83
2022/10/04 03:21:58;;;;;;;5.32;4.82;;;10.70;99.90;;;;;;5001260;28;20212;-84
2022/10/04 03:24:33;;;;;;;8.70;4.82;;;10.70;99.90;;;;;;4989277;28;20210;-82
2022/10/04 03:27:05;;;;;;;8.00;5.00;;;10.70;99.90;;;;;;5000445;28;20216;-80
2022/10/04 03:29:33;;;;;;;7.75;4.00;;;10.70;99.90;;;;;;5017702;28;20225;-81
2022/10/04 03:32:19;;;;;;;17.55;6.85;;;10.60;99.90;;;;;;4995867;28;20249;-83
2022/10/04 03:34:58;;;;;;;13.63;5.43;;;10.50;99.90;;;;;;4999948;28;20216;-83
2022/10/04 03:37:29;;;;;;;5.53;4.65;;;10.60;99.90;;;;;;4991567;28;20210;-85
2022/10/04 03:39:57;;;;;;;6.55;4.13;;;10.50;99.90;;;;;;4996010;28;20216;-81
2022/10/04 03:42:29;;;;;;;11.88;4.97;;;10.40;99.90;;;;;;4998751;28;20259;-82
2022/10/04 03:45:07;;;;;;;10.15;4.90;;;10.40;99.90;;;;;;5015846;28;20420;-87
2022/10/04 03:47:37;;;;;;;6.10;4.28;;;10.30;99.90;;;;;;5000350;28;20262;-82
2022/10/04 03:50:36;;;;;;;15.85;4.65;;;10.30;99.90;;;;;;5000723;28;20408;-83
2022/10/04 03:53:14;;;;;;;12.23;5.95;;;10.30;99.90;;;;;;4991433;28;20212;-82
2022/10/04 03:55:44;;;;;;;11.23;5.03;;;10.30;99.90;;;;;;4992104;28;20264;-82
2022/10/04 03:58:16;;;;;;;6.47;4.65;;;10.30;99.90;;;;;;4989422;28;20218;-83
2022/10/04 04:01:11;;;;;;;15.02;7.00;;;10.40;99.90;;;;;;4999330;28;20411;-83
2022/10/04 04:03:55;;;;;;;8.20;6.13;;;10.30;99.90;;;;;;4997950;28;20234;-81
2022/10/04 04:06:24;;;;;;;12.93;6.68;;;10.40;99.90;;;;;;5000691;28;20212;-82
2022/10/04 04:08:54;;;;;;;15.00;6.75;;;10.40;99.90;;;;;;4987354;28;20842;-83
2022/10/04 04:11:25;;;;;;;11.95;6.13;;;10.40;99.90;;;;;;5002303;28;20796;-80
2022/10/04 04:14:20;;;;;;;5.13;4.63;;;10.30;99.90;;;;;;5020029;28;20212;-82
2022/10/04 04:16:47;;;;;;;8.27;6.25;;;10.30;99.90;;;;;;5012909;28;20189;-82
2022/10/04 04:19:17;;;;;;;11.77;6.15;;;10.20;99.90;;;;;;5010454;28;20194;-81
2022/10/04 04:21:45;;;;;;;13.15;6.00;;;10.20;99.90;;;;;;5004916;28;20201;-81
2022/10/04 04:24:22;;;;;;;8.90;6.25;;;10.30;99.90;;;;;;5012270;28;20208;-82
2022/10/04 04:26:56;;;;;;;11.35;6.90;;;10.30;99.90;;;;;;5000641;28;20213;-80
2022/10/04 04:29:51;;;;;;;14.98;7.30;;;10.30;99.90;;;;;;5016656;28;20278;-82
2022/10/04 04:32:30;;;;;;;13.30;7.07;;;10.40;99.90;;;;;;4995913;28;20455;-83
2022/10/04 04:35:07;;;;;;;14.23;7.43;;;10.40;99.90;;;;;;4993957;28;20216;-81
2022/10/04 04:37:36;;;;;;;13.88;6.03;;;10.30;99.90;;;;;;4996375;28;20236;-83
2022/10/04 04:40:23;;;;;;;9.57;6.20;;;10.30;99.90;;;;;;5000188;28;20213;-84
2022/10/04 04:42:51;;;;;;;10.90;6.20;;;10.20;99.90;;;;;;4988308;28;20221;-83
2022/10/04 04:45:21;;;;;;;5.78;4.90;;;10.30;99.90;;;;;;4995168;28;20213;-83
2022/10/04 04:47:51;;;;;;;10.63;7.32;;;10.20;99.90;;;;;;4999544;28;20213;-83
2022/10/04 04:50:33;;;;;;;9.77;6.18;;;10.20;99.90;;;;;;4991654;28;20435;-83
2022/10/04 04:53:15;;;;;;;13.73;7.05;;;10.20;99.90;;;;;;4993796;28;20288;-81
2022/10/04 04:55:46;;;;;;;21.17;7.78;;;10.10;99.90;;;;;;4991570;28;20220;-81
2022/10/04 04:58:36;;;;;;;9.07;5.28;;;10.20;99.90;;;;;;5001985;28;20208;-83
2022/10/04 05:01:22;;;;;;;11.13;4.78;;;10.20;99.90;;;;;;4996299;28;20224;-82
2022/10/04 05:04:22;;;;;;;10.05;7.78;;;10.20;99.90;;;;;;4990788;28;20217;-81
2022/10/04 05:07:14;;;;;;;10.20;5.75;;;10.10;99.90;;;;;;4989186;28;20216;-85
2022/10/04 05:09:41;;;;;;;7.50;5.13;;;10.10;99.90;;;;;;5000770;28;20295;-82
2022/10/04 05:12:21;;;;;;;10.85;6.22;;;10.00;99.90;;;;;;4995374;28;20360;-83
2022/10/04 05:14:51;;;;;;;14.00;6.30;;;10.00;99.90;;;;;;4995967;28;20216;-83
2022/10/04 05:17:30;;;;;;;6.53;4.78;;;10.00;99.90;;;;;;4998000;28;20209;-82
2022/10/04 05:20:03;;;;;;;8.73;5.05;;;10.00;99.90;;;;;;4995878;28;20216;-82
2022/10/04 05:22:31;;;;;;;10.23;5.80;;;10.00;99.90;;;;;;4990959;28;20221;-82
2022/10/04 05:25:05;;;;;;;17.98;6.10;;;10.00;99.90;;;;;;4995711;28;20515;-80
2022/10/04 05:27:43;;;;;;;11.50;5.45;;;10.10;99.90;;;;;;4998270;28;20217;-83
2022/10/04 05:30:31;;;;;;;12.50;5.22;;;10.10;99.90;;;;;;4997850;28;20649;-84
2022/10/04 05:38:27;;;;;;;14.57;5.93;;;10.10;99.90;;;;;;5017529;23;20243;-80
2022/10/04 05:41:15;;;;;;;10.05;5.25;;;10.10;99.90;;;;;;5002012;28;20251;-82
2022/10/04 05:43:47;;;;;;;7.32;4.93;;;10.10;99.90;;;;;;5003162;28;20262;-84
2022/10/04 05:46:28;;;;;;;13.25;5.18;;;10.10;99.90;;;;;;5114814;23;20296;-83
2022/10/04 05:49:11;;;;;;;5.43;4.75;;;10.20;99.90;;;;;;4955740;29;20282;-81
2022/10/04 05:52:01;;;;;;;8.45;4.95;;;10.20;99.90;;;;;;4966010;29;20225;-80
2022/10/04 05:54:32;;;;;;;13.90;4.63;;;10.30;99.90;;;;;;4963583;29;20248;-83
2022/10/04 05:57:36;;;;;;;7.72;4.30;;;10.30;99.90;;;;;;4972408;29;20433;-82
2022/10/04 06:00:17;;;;;;;8.30;3.25;;;10.40;99.90;;;;;;4962373;29;20265;-81
2022/10/04 06:03:08;;;;;;;17.42;4.40;;;10.40;99.90;;;;;;4967775;29;20197;-80
2022/10/04 06:05:47;;;;;;;7.90;3.72;;;10.60;99.90;;;;;;4965137;29;20230;-81
2022/10/04 06:08:32;;;;;;;11.93;4.15;;;11.00;99.90;;;;;;4957646;29;20214;-85
2022/10/04 06:11:13;;;;;;;15.05;3.50;;;11.40;99.90;;;;;;4958350;29;20490;-83
2022/10/04 06:14:24;;;;;;;4.93;2.72;;;11.80;99.90;;;;;;4964027;29;20191;-84
2022/10/04 06:17:17;;;;;;;6.40;2.65;;;12.10;99.90;;;;;;4945139;29;20213;-83
2022/10/04 06:19:53;;;;;;;10.30;3.33;;;12.50;99.90;;;;;;4956246;29;20255;-82
2022/10/04 06:22:22;;;;;;;4.97;2.20;;;12.70;99.90;;;;;;4966240;29;20249;-83
2022/10/04 06:24:51;;;;;;;5.40;2.85;;;12.80;99.90;;;;;;4954715;29;20218;-83
2022/10/04 06:27:23;;;;;;;14.20;3.72;;;12.80;99.90;;;;;;4965239;29;20211;-84
2022/10/04 06:29:56;;;;;;;3.45;2.53;;;12.90;99.90;;;;;;4963057;29;20242;-84
2022/10/04 06:33:00;;;;;;;3.63;2.05;;;12.90;99.90;;;;;;4963629;29;20223;-82
2022/10/04 06:35:50;;;;;;;14.35;3.67;;;12.80;99.90;;;;;;4954025;29;20207;-82
2022/10/04 06:38:57;;;;;;;5.22;3.55;;;12.70;99.90;;;;;;4935728;29;20203;-80
2022/10/04 06:41:58;;;;;;;7.45;2.75;;;12.80;99.90;;;;;;4947283;29;20275;-82
2022/10/04 06:44:31;;;;;;;7.57;2.65;;;12.90;99.90;;;;;;4977596;28;20227;-82
2022/10/04 06:47:18;;;;;;;8.43;2.47;;;12.90;99.90;;;;;;4978119;28;20211;-83
2022/10/04 06:50:11;;;;;;;4.97;2.10;;;13.20;99.90;;;;;;4952273;28;20195;-81
2022/10/04 06:52:55;;;;;;;5.97;2.50;;;13.50;99.90;;;;;;4963388;28;20231;-85
2022/10/04 06:55:48;;;;;;;10.68;3.33;;;13.40;99.90;;;;;;4935897;29;20224;-81
2022/10/04 06:58:15;;;;;;;6.05;2.47;;;13.40;99.90;;;;;;4960575;29;20215;-85
2022/10/04 07:01:02;;;;;;;12.05;2.70;;;13.30;99.90;;;;;;4963999;29;20243;-80
2022/10/04 07:03:38;;;;;;;5.93;2.80;;;13.40;99.90;;;;;;4961267;29;20415;-85
2022/10/04 07:06:10;;;;;;;5.20;2.75;;;13.40;99.90;;;;;;4953344;29;20211;-82
2022/10/04 07:08:46;;;;;;;4.65;2.65;;;13.30;99.90;;;;;;4940149;29;20489;-82
2022/10/04 07:11:31;;;;;;;8.60;2.45;;;13.40;99.90;;;;;;4956381;29;20191;-83
2022/10/04 07:14:08;;;;;;;7.43;2.97;;;13.10;99.90;;;;;;4962080;29;20554;-84
2022/10/04 07:16:54;;;;;;;8.50;2.60;;;13.70;99.90;;;;;;4961462;29;20242;-82
2022/10/04 07:19:26;;;;;;;4.15;2.05;;;14.20;99.90;;;;;;4951088;29;20212;-81
2022/10/04 07:22:11;;;;;;;16.52;3.38;;;14.10;99.90;;;;;;4932506;29;20422;-84
2022/10/04 07:25:07;;;;;;;12.23;2.60;;;14.50;99.90;;;;;;4961985;29;20202;-81
2022/10/04 07:27:43;;;;;;;6.43;2.63;;;15.50;99.90;;;;;;4961892;29;20379;-81
2022/10/04 07:30:16;;;;;;;5.77;2.30;;;17.00;99.90;;;;;;4962003;28;20441;-86
2022/10/04 07:32:50;;;;;;;9.40;2.20;;;17.50;99.90;;;;;;4966907;28;20515;-84
2022/10/04 07:35:34;;;;;;;7.60;2.40;;;18.30;99.90;;;;;;4964244;29;20429;-81
2022/10/04 07:38:14;;;;;;;5.70;2.50;;;18.80;99.90;;;;;;4962202;29;20441;-85
2022/10/04 07:41:12;;;;;;;7.70;2.70;;;19.00;99.90;;;;;;4966147;29;20433;-85
2022/10/04 07:43:56;;;;;;;4.33;2.10;;;18.50;99.90;;;;;;4963793;29;20490;-83
2022/10/04 07:46:40;;;;;;;9.67;2.37;;;18.00;99.90;;;;;;4962151;29;20427;-82
2022/10/04 07:49:19;;;;;;;4.70;1.90;;;18.20;99.90;;;;;;4963445;29;20441;-80
2022/10/04 07:52:20;;;;;;;4.53;2.10;;;19.20;99.90;;;;;;4969560;29;20468;-81
2022/10/04 07:55:01;;;;;;;6.00;2.43;;;19.40;99.90;;;;;;4956868;29;20423;-83
2022/10/04 07:57:50;;;;;;;5.27;2.20;;;19.10;99.90;;;;;;4957309;29;20450;-82
2022/10/04 08:00:23;;;;;;;4.13;2.10;;;18.70;99.90;;;;;;4968755;29;20441;-84
2022/10/04 08:02:50;;;;;;;4.60;1.83;;;18.00;99.90;;;;;;4963742;28;20465;-83
2022/10/04 08:05:33;;;;;;;6.83;2.23;;;18.10;99.90;;;;;;4978950;29;20438;-85
2022/10/04 08:08:03;;;;;;;3.17;1.80;;;19.00;99.90;;;;;;4961532;29;20413;-82
2022/10/04 08:10:45;;;;;;;4.73;1.50;;;20.10;99.90;;;;;;4968348;29;20724;-83
2022/10/04 08:13:32;;;;;;;8.10;2.27;;;21.00;99.90;;;;;;4962262;29;20470;-83
2022/10/04 08:16:03;;;;;;;3.60;1.70;;;20.50;99.90;;;;;;4950103;29;20452;-84
2022/10/04 08:18:39;;;;;;;3.90;1.37;;;20.40;99.90;;;;;;4966422;29;20506;-83
2022/10/04 08:21:08;;;;;;;3.43;2.00;;;19.90;99.90;;;;;;4951869;29;20466;-82
2022/10/04 08:24:05;;;;;;;3.67;2.20;;;18.40;99.90;;;;;;4970648;29;20445;-84
2022/10/04 08:26:59;;;;;;;5.27;2.57;;;17.20;99.90;;;;;;4966479;29;20433;-83
2022/10/04 08:29:47;;;;;;;2.30;1.87;;;16.80;99.90;;;;;;4966409;29;20429;-83
2022/10/04 08:32:22;;;;;;;5.80;2.17;;;17.00;99.90;;;;;;4969692;29;20541;-81
2022/10/04 08:35:28;;;;;;;2.97;1.70;;;17.50;99.90;;;;;;4945157;29;20445;-81
2022/10/04 08:38:20;;;;;;;3.70;2.43;;;17.50;99.90;;;;;;4882036;29;20448;-83
2022/10/04 08:41:00;;;;;;;5.07;2.07;;;17.00;99.90;;;;;;4890227;29;20477;-84
2022/10/04 08:44:10;;;;;;;5.97;2.60;;;16.70;99.90;;;;;;4933359;29;20476;-83
2022/10/04 08:47:16;;;;;;;3.30;2.40;;;16.30;99.90;;;;;;4948924;29;20449;-84
2022/10/04 08:50:20;;;;;;;4.87;2.10;;;15.80;99.90;;;;;;4956467;29;20444;-82
2022/10/04 08:53:24;;;;;;;2.70;1.50;;;16.90;99.90;;;;;;4962679;29;20477;-88
2022/10/04 08:56:11;;;;;;;8.00;3.20;;;19.10;99.90;;;;;;4960906;28;20487;-85
2022/10/04 08:59:15;;;;;;;8.90;2.33;;;19.60;99.90;;;;;;4965762;28;20445;-84
2022/10/04 09:02:16;;;;;;;2.37;1.53;;;19.70;99.90;;;;;;4964665;29;20437;-85
2022/10/04 09:05:01;;;;;;;5.70;3.03;;;19.50;99.90;;;;;;4949579;29;20464;-86
2022/10/04 09:08:18;;;;;;;5.97;2.43;;;20.10;99.90;;;;;;4943236;29;20450;-82
2022/10/04 09:11:07;;;;;;;7.23;2.20;;;20.20;99.90;;;;;;4938548;29;20431;-82
2022/10/04 09:14:03;;;;;;;5.77;2.50;;;18.50;99.90;;;;;;4955681;29;20538;-84
2022/10/04 09:16:46;;;;;;;3.93;2.63;;;17.30;99.90;;;;;;4963768;28;20529;-82
2022/10/04 09:19:51;;;;;;;3.00;1.90;;;16.50;99.90;;;;;;4960289;28;20453;-81
2022/10/04 09:22:45;;;;;;;4.17;2.03;;;15.90;99.90;;;;;;4958656;29;20504;-85
2022/10/04 09:25:28;;;;;;;2.60;1.63;;;15.70;99.90;;;;;;4959740;29;20441;-81
2022/10/04 09:28:14;;;;;;;11.43;2.07;;;15.40;99.90;;;;;;4956854;29;20508;-83
2022/10/04 09:31:09;;;;;;;4.90;2.30;;;15.40;99.90;;;;;;4962552;29;20501;-82
2022/10/04 09:33:55;;;;;;;3.80;1.90;;;15.60;99.90;;;;;;4943117;29;20545;-82
2022/10/04 09:36:58;;;;;;;6.73;2.23;;;15.60;99.90;;;;;;4962458;29;20437;-82
2022/10/04 09:39:33;;;;;;;2.13;1.57;;;16.00;99.90;;;;;;4961205;29;20496;-83
2022/10/04 09:42:44;;;;;;;3.60;2.03;;;16.40;99.90;;;;;;4961011;29;20495;-83
2022/10/04 09:45:43;;;;;;;2.00;1.37;;;16.50;99.90;;;;;;4900190;29;20444;-81
2022/10/04 09:48:24;;;;;;;4.07;1.60;;;16.50;99.90;;;;;;4947578;29;20490;-82
2022/10/04 09:51:18;;;;;;;5.20;1.73;;;16.20;99.90;;;;;;4954390;29;20422;-80
2022/10/04 09:54:29;;;;;;;5.87;2.30;;;16.00;99.90;;;;;;4959723;29;20488;-81
2022/10/04 09:57:05;;;;;;;5.17;2.17;;;15.90;99.90;;;;;;4951749;29;20483;-82
2022/10/04 09:59:44;;;;;;;4.37;2.10;;;16.00;99.90;;;;;;4952261;29;20433;-82
2022/10/04 10:02:27;;;;;;;3.77;2.83;;;15.90;99.90;;;;;;4951940;29;20441;-85
2022/10/04 10:05:15;;;;;;;3.90;1.57;;;16.00;99.90;;;;;;4943758;29;20520;-82
2022/10/04 10:07:58;;;;;;;3.43;1.43;;;16.20;99.90;;;;;;4959593;29;21176;-85
2022/10/04 10:14:32;;;;;;;2.00;1.77;;;16.70;99.90;;;;;;4954375;29;20484;-83
2022/10/04 10:17:23;;;;;;;5.37;1.70;;;16.60;99.90;;;;;;4860043;29;20468;-83
2022/10/04 10:20:22;;;;;;;2.47;2.27;;;16.40;99.90;;;;;;4863904;29;20504;-81
2022/10/04 10:23:17;;;;;;;10.10;2.70;;;16.00;99.90;;;;;;4948224;29;20453;-84
2022/10/04 10:26:21;;;;;;;5.10;2.10;;;16.00;99.90;;;;;;4958946;29;20437;-80
2022/10/04 10:29:16;;;;;;;3.60;2.50;;;16.10;99.90;;;;;;4956735;29;20446;-87
2022/10/04 10:32:08;;;;;;;2.00;1.77;;;16.40;99.90;;;;;;4953510;29;20513;-83
2022/10/04 10:35:15;;;;;;;3.57;1.93;;;16.90;99.90;;;;;;4956212;29;20461;-81
2022/10/04 10:38:18;;;;;;;2.80;2.10;;;17.20;99.90;;;;;;4953590;29;20437;-85
2022/10/04 10:40:45;;;;;;;5.17;1.30;;;17.50;99.90;;;;;;4943428;29;20781;-83
2022/10/04 10:43:26;;;;;;;2.73;1.53;;;17.50;99.90;;;;;;4954487;29;20437;-82
2022/10/04 10:46:03;;;;;;;5.00;1.83;;;17.20;99.90;;;;;;4948946;29;20451;-84
2022/10/04 10:48:56;;;;;;;1.70;1.60;;;16.50;99.90;;;;;;4949334;29;20441;-82
2022/10/04 10:52:08;;;;;;;4.13;1.80;;;16.30;99.90;;;;;;4968861;29;20444;-84
2022/10/04 10:54:54;;;;;;;2.97;2.17;;;16.10;99.90;;;;;;4948711;29;20467;-86
2022/10/04 10:57:42;;;;;;;3.67;1.90;;;16.30;99.90;;;;;;4961025;29;20464;-83
2022/10/04 11:00:22;;;;;;;2.93;2.13;;;16.50;99.90;;;;;;4954791;29;20504;-83
2022/10/04 11:03:31;;;;;;;5.53;2.30;;;16.30;99.90;;;;;;4952913;28;20487;-87
2022/10/04 11:06:17;;;;;;;2.23;1.47;;;15.90;99.90;;;;;;4956468;29;20430;-81
2022/10/04 11:09:02;;;;;;;7.33;1.60;;;15.80;99.90;;;;;;4945971;29;20564;-84
2022/10/04 11:11:40;;;;;;;6.33;2.73;;;15.90;99.90;;;;;;4963245;29;20437;-85
2022/10/04 11:14:32;;;;;;;4.17;1.17;;;16.10;99.90;;;;;;4947600;29;20481;-88
2022/10/04 11:17:36;;;;;;;2.07;1.60;;;16.20;99.90;;;;;;4949728;29;20430;-87
2022/10/04 11:20:41;;;;;;;2.33;2.13;;;16.30;99.90;;;;;;4958668;29;20485;-85
2022/10/04 11:23:55;;;;;;;4.07;1.83;;;16.20;99.90;;;;;;4958116;29;20493;-85
2022/10/04 11:26:54;;;;;;;3.70;1.60;;;16.30;99.90;;;;;;4961306;29;20444;-86
2022/10/04 11:29:29;;;;;;;1.70;1.57;;;16.30;99.90;;;;;;4962548;29;20455;-87
2022/10/04 11:31:59;;;;;;;1.43;1.30;;;16.20;99.90;;;;;;4949091;29;20429;-82
2022/10/04 11:34:56;;;;;;;3.30;1.63;;;16.40;99.90;;;;;;4975585;28;20566;-84
2022/10/04 11:38:04;;;;;;;3.20;2.93;;;16.70;99.90;;;;;;4960355;28;20453;-81
2022/10/04 11:41:06;;;;;;;2.57;1.43;;;17.10;99.90;;;;;;4974810;28;20469;-85
2022/10/04 11:43:53;;;;;;;5.17;1.63;;;17.30;99.90;;;;;;4962547;29;20448;-87
2022/10/04 11:46:34;;;;;;;4.43;1.70;;;17.50;99.90;;;;;;4972545;28;20445;-84
2022/10/04 11:49:23;;;;;;;1.57;1.47;;;17.50;99.90;;;;;;4967147;29;20497;-83
2022/10/04 11:52:19;;;;;;;3.40;1.53;;;17.30;99.90;;;;;;4964619;28;20962;-85
2022/10/04 11:55:25;;;;;;;3.30;1.50;;;17.30;99.90;;;;;;4957369;28;20446;-83
2022/10/04 11:58:17;;;;;;;2.80;1.77;;;17.50;99.90;;;;;;4969824;29;20429;-82
2022/10/04 12:01:39;;;;;;;5.90;2.30;;;17.40;99.90;;;;;;4970795;28;20429;-81
2022/10/04 12:04:40;;;;;;;3.23;1.40;;;17.60;99.90;;;;;;4963252;29;20465;-84
2022/10/04 12:07:41;;;;;;;3.33;1.43;;;17.90;99.90;;;;;;4960131;29;20445;-88
2022/10/04 12:10:18;;;;;;;7.57;1.90;;;18.30;99.90;;;;;;4951264;29;20841;-82
2022/10/04 12:13:19;;;;;;;6.07;1.77;;;18.40;99.90;;;;;;4959009;29;20823;-83
2022/10/04 12:16:11;;;;;;;2.40;1.87;;;18.50;99.90;;;;;;4957554;29;20432;-85
2022/10/04 12:19:14;;;;;;;2.30;1.10;;;18.20;99.90;;;;;;4961565;29;20448;-86
2022/10/04 12:21:58;;;;;;;1.87;1.17;;;17.70;99.90;;;;;;4945156;29;20445;-84
2022/10/04 12:24:49;;;;;;;3.50;1.47;;;17.10;99.90;;;;;;4963408;29;20623;-87
2022/10/04 12:27:45;;;;;;;2.83;1.20;;;16.90;99.90;;;;;;4961624;29;20995;-88
2022/10/04 12:30:21;;;;;;;2.23;1.20;;;17.10;99.90;;;;;;4956929;29;20796;-86
2022/10/04 12:33:04;;;;;;;1.33;1.20;;;17.00;99.90;;;;;;4945148;29;20481;-86
2022/10/04 12:35:46;;;;;;;1.30;1.20;;;17.00;99.90;;;;;;4966860;29;20488;-86
2022/10/04 12:38:37;;;;;;;5.70;1.77;;;16.70;99.90;;;;;;4964302;29;20437;-84
2022/10/04 12:41:30;;;;;;;2.73;1.37;;;16.60;99.90;;;;;;4957148;29;20453;-83
2022/10/04 12:44:09;;;;;;;3.03;1.60;;;16.60;99.90;;;;;;4939857;29;20461;-81
2022/10/04 12:46:54;;;;;;;2.07;1.47;;;16.80;99.90;;;;;;4959553;29;20488;-83
2022/10/04 12:49:40;;;;;;;5.37;2.13;;;17.10;99.90;;;;;;4954938;29;20449;-85
2022/10/04 12:52:14;;;;;;;3.53;1.40;;;17.20;99.90;;;;;;4955736;29;20488;-84
2022/10/04 12:54:44;;;;;;;2.00;1.10;;;17.30;99.90;;;;;;4953365;29;20487;-83
2022/10/04 12:57:31;;;;;;;2.20;1.37;;;17.30;99.90;;;;;;4965558;29;20509;-84
2022/10/04 13:00:13;;;;;;;3.90;1.30;;;17.30;99.90;;;;;;4956760;29;20448;-81
2022/10/04 13:03:02;;;;;;;4.00;1.27;;;17.10;99.90;;;;;;4955355;29;20473;-80
2022/10/04 13:05:48;;;;;;;3.97;2.03;;;16.70;99.90;;;;;;4962713;29;20657;-83
2022/10/04 13:08:49;;;;;;;5.50;1.93;;;16.40;99.90;;;;;;4962482;29;20677;-82
2022/10/04 13:11:31;;;;;;;2.70;1.53;;;16.40;99.90;;;;;;4962857;29;20452;-80
2022/10/04 13:14:19;;;;;;;3.10;1.80;;;16.50;99.90;;;;;;4969933;29;20540;-82
2022/10/04 13:16:49;;;;;;;2.00;1.70;;;16.30;99.90;;;;;;4963175;29;20452;-85
2022/10/04 13:19:57;;;;;;;6.43;2.83;;;16.00;99.90;;;;;;4957739;29;20441;-83
2022/10/04 13:22:46;;;;;;;7.93;1.67;;;15.80;99.90;;;;;;4961054;29;20449;-86
2022/10/04 13:25:53;;;;;;;2.70;1.40;;;15.80;99.90;;;;;;4954910;29;20437;-84
2022/10/04 13:28:31;;;;;;;5.10;1.10;;;15.90;99.90;;;;;;4959852;29;20476;-84
2022/10/04 13:31:04;;;;;;;3.20;1.43;;;16.00;99.90;;;;;;4947398;29;20536;-82
2022/10/04 13:33:40;;;;;;;1.73;1.40;;;16.00;99.90;;;;;;4953322;29;20485;-85
2022/10/04 13:36:39;;;;;;;2.13;1.33;;;16.10;99.90;;;;;;4951689;29;21044;-87
2022/10/04 13:39:45;;;;;;;2.87;1.60;;;16.30;99.90;;;;;;4954939;29;21721;-86
2022/10/04 13:42:27;;;;;;;2.03;1.80;;;16.50;99.90;;;;;;4951022;29;20469;-82
2022/10/04 13:45:12;;;;;;;1.63;1.50;;;16.60;99.90;;;;;;4957976;29;20441;-82
2022/10/04 13:48:16;;;;;;;3.60;1.43;;;16.70;99.90;;;;;;4943285;29;20441;-82
2022/10/04 13:51:27;;;;;;;4.00;2.30;;;16.70;99.90;;;;;;4949141;29;20453;-85
2022/10/04 13:57:17;;;;;;;4.77;1.90;;;16.50;99.90;;;;;;4957137;29;20477;-85
2022/10/04 14:00:03;;;;;;;3.13;2.20;;;16.40;99.90;;;;;;4956359;29;20434;-85
2022/10/04 14:02:59;;;;;;;2.10;1.40;;;16.40;99.90;;;;;;4957198;29;20751;-85
2022/10/04 14:05:58;;;;;;;2.60;1.90;;;16.60;99.90;;;;;;4960299;29;20469;-85
2022/10/04 14:08:32;;;;;;;2.77;1.47;;;16.50;99.90;;;;;;4973645;28;20449;-83
2022/10/04 14:11:32;;;;;;;2.90;1.20;;;16.40;99.90;;;;;;4975778;28;20433;-81
2022/10/04 14:14:20;;;;;;;2.33;1.47;;;16.10;99.90;;;;;;4974107;28;20469;-82
2022/10/04 14:17:21;;;;;;;2.70;1.40;;;15.80;99.90;;;;;;4971098;29;20464;-82
2022/10/04 14:20:09;;;;;;;1.40;1.27;;;15.70;99.90;;;;;;4958031;29;20475;-84